Time;durP1;ratioP1;P1;durP2;ratioP2;P2;SDS_P1;SDS_P2;PMS_P1;PMS_P2;Temp;Humidity;BMP_temperature;BMP_pressure;BME280_temperature;BME280_humidity;BME280_pressure;Samples;Min_cycle;Max_cycle;Signal;HPM_P1;HPM_P2
2021/12/11 00:01:10;;;;;;;22.15;9.50;;;1.00;99.90;;;;;;5056825;28;20040;-71
2021/12/11 00:03:42;;;;;;;29.80;10.82;;;0.80;99.90;;;;;;5057009;28;20039;-71
2021/12/11 00:06:15;;;;;;;23.55;9.82;;;0.80;99.90;;;;;;5056923;28;20025;-71
2021/12/11 00:08:43;;;;;;;26.35;10.73;;;0.80;99.90;;;;;;5074465;28;20542;-71
2021/12/11 00:11:20;;;;;;;22.77;10.63;;;0.90;99.90;;;;;;5056697;28;20032;-71
2021/12/11 00:13:46;;;;;;;26.88;10.23;;;0.90;99.90;;;;;;5074921;28;20471;-79
2021/12/11 00:16:22;;;;;;;21.40;9.30;;;0.90;99.90;;;;;;5074592;28;20099;-71
2021/12/11 00:18:54;;;;;;;23.02;8.43;;;0.90;99.90;;;;;;5056680;28;20091;-70
2021/12/11 00:21:22;;;;;;;25.92;10.35;;;0.80;99.90;;;;;;5056857;28;20040;-70
2021/12/11 00:23:55;;;;;;;22.60;10.27;;;0.80;99.90;;;;;;5074401;28;20043;-69
2021/12/11 00:26:40;;;;;;;21.88;9.10;;;0.80;99.90;;;;;;5074286;28;20035;-71
2021/12/11 00:29:07;;;;;;;22.08;8.80;;;0.80;99.90;;;;;;5056890;28;20028;-71
2021/12/11 00:31:35;;;;;;;25.63;11.10;;;0.80;99.90;;;;;;5074329;28;20119;-71
2021/12/11 00:34:03;;;;;;;21.17;9.85;;;0.80;99.90;;;;;;5056504;28;20024;-70
2021/12/11 00:36:34;;;;;;;20.83;9.02;;;0.90;99.90;;;;;;5074292;28;20025;-71
2021/12/11 00:39:11;;;;;;;21.40;7.93;;;0.90;99.90;;;;;;5074607;28;20070;-71
2021/12/11 00:41:38;;;;;;;20.70;10.27;;;0.90;99.90;;;;;;5056779;28;20029;-70
2021/12/11 00:44:04;;;;;;;24.65;10.05;;;0.90;99.90;;;;;;5074250;28;20055;-71
2021/12/11 00:46:31;;;;;;;24.23;9.60;;;0.90;99.90;;;;;;5056206;28;20418;-71
2021/12/11 00:49:15;;;;;;;24.73;9.27;;;0.90;99.90;;;;;;5073786;28;20021;-71
2021/12/11 00:51:41;;;;;;;27.08;9.65;;;0.90;99.90;;;;;;5074000;28;20522;-70
2021/12/11 00:54:07;;;;;;;24.23;10.50;;;0.90;99.90;;;;;;5056076;28;20025;-71
2021/12/11 00:56:38;;;;;;;22.15;9.20;;;0.90;99.90;;;;;;5056150;28;20036;-71
2021/12/11 00:59:08;;;;;;;22.30;9.27;;;0.90;99.90;;;;;;5055940;28;20166;-71
2021/12/11 01:01:44;;;;;;;23.95;10.35;;;0.80;99.90;;;;;;5056133;28;20036;-70
2021/12/11 01:04:28;;;;;;;26.20;10.13;;;0.80;99.90;;;;;;5056133;28;20028;-71
2021/12/11 01:06:56;;;;;;;26.15;10.70;;;0.80;99.90;;;;;;5056110;28;20052;-71
2021/12/11 01:09:35;;;;;;;24.30;9.52;;;0.80;99.90;;;;;;5055783;28;20476;-71
2021/12/11 01:12:07;;;;;;;21.23;8.65;;;0.90;99.90;;;;;;5073763;28;20032;-70
2021/12/11 01:14:52;;;;;;;26.30;9.82;;;0.80;99.90;;;;;;5073965;28;20036;-71
2021/12/11 01:17:31;;;;;;;26.38;9.75;;;0.80;99.90;;;;;;5055837;28;20468;-71
2021/12/11 01:20:04;;;;;;;22.05;9.23;;;0.80;99.90;;;;;;5055757;28;20465;-70
2021/12/11 01:22:35;;;;;;;25.58;10.15;;;0.90;99.90;;;;;;5073789;28;20029;-71
2021/12/11 01:25:06;;;;;;;28.77;9.25;;;0.90;99.90;;;;;;5055919;28;20029;-71
2021/12/11 01:27:32;;;;;;;24.10;9.65;;;0.90;99.90;;;;;;5055812;28;20025;-71
2021/12/11 01:30:00;;;;;;;24.13;9.70;;;0.90;99.90;;;;;;5073183;28;20059;-71
2021/12/11 01:32:29;;;;;;;33.17;14.02;;;0.90;99.90;;;;;;5056172;28;20086;-70
2021/12/11 01:34:58;;;;;;;23.92;9.77;;;1.00;99.90;;;;;;5073587;28;20035;-71
2021/12/11 01:37:24;;;;;;;21.40;9.20;;;0.90;99.90;;;;;;5073856;28;20028;-71
2021/12/11 01:39:51;;;;;;;23.13;9.40;;;1.30;99.90;;;;;;5077519;28;20124;-70
2021/12/11 01:42:27;;;;;;;23.95;9.70;;;0.90;99.90;;;;;;5077598;28;20082;-70
2021/12/11 01:44:55;;;;;;;25.73;9.65;;;0.80;99.90;;;;;;5077392;28;20032;-71
2021/12/11 01:47:33;;;;;;;24.37;9.30;;;0.90;99.90;;;;;;5059819;28;20112;-71
2021/12/11 01:50:15;;;;;;;20.85;8.65;;;0.90;99.90;;;;;;5059591;28;20029;-71
2021/12/11 01:52:52;;;;;;;28.17;10.35;;;0.90;99.90;;;;;;5059522;28;20028;-71
2021/12/11 01:55:32;;;;;;;27.67;10.77;;;0.90;99.90;;;;;;5059511;28;20031;-71
2021/12/11 01:58:00;;;;;;;28.85;10.60;;;0.90;99.90;;;;;;5077825;28;20055;-71
2021/12/11 02:00:47;;;;;;;27.08;10.50;;;0.90;99.90;;;;;;5077171;28;20060;-70
2021/12/11 02:03:19;;;;;;;23.45;9.85;;;0.90;99.90;;;;;;5076928;28;20035;-70
2021/12/11 02:05:44;;;;;;;23.17;10.02;;;0.90;99.90;;;;;;5077213;28;20024;-71
2021/12/11 02:08:16;;;;;;;26.42;9.63;;;0.90;99.90;;;;;;5077306;28;20032;-70
2021/12/11 02:10:51;;;;;;;22.17;10.25;;;0.90;99.90;;;;;;5059105;28;20028;-71
2021/12/11 02:13:28;;;;;;;23.67;9.52;;;0.90;99.90;;;;;;5077174;28;20032;-70
2021/12/11 02:15:54;;;;;;;26.05;10.50;;;0.80;99.90;;;;;;5077001;28;20017;-70
2021/12/11 02:18:43;;;;;;;27.13;11.15;;;0.80;99.90;;;;;;5077138;28;20086;-71
2021/12/11 02:21:11;;;;;;;27.00;9.82;;;0.80;99.90;;;;;;5077091;28;20161;-71
2021/12/11 02:23:38;;;;;;;25.20;10.50;;;0.80;99.90;;;;;;5077069;28;20040;-70
2021/12/11 02:26:13;;;;;;;29.15;9.48;;;0.80;99.90;;;;;;5058833;28;20028;-71
2021/12/11 02:28:41;;;;;;;27.08;10.45;;;0.80;99.90;;;;;;5058853;28;20054;-71
2021/12/11 02:31:27;;;;;;;25.55;10.38;;;0.80;99.90;;;;;;5076282;28;20076;-71
2021/12/11 02:34:19;;;;;;;23.75;10.27;;;0.80;99.90;;;;;;5057475;28;20024;-70
2021/12/11 02:37:08;;;;;;;24.48;10.23;;;1.20;99.90;;;;;;5055958;28;20035;-71
2021/12/11 02:39:49;;;;;;;22.20;9.82;;;0.80;99.90;;;;;;5057771;28;20387;-71
2021/12/11 02:42:17;;;;;;;26.98;10.93;;;0.80;99.90;;;;;;5075406;28;20059;-71
2021/12/11 02:45:10;;;;;;;30.48;10.43;;;0.80;99.90;;;;;;5075290;28;20017;-70
2021/12/11 02:47:55;;;;;;;31.23;10.93;;;0.80;99.90;;;;;;5075036;28;20032;-70
2021/12/11 02:50:27;;;;;;;26.95;11.10;;;0.80;99.90;;;;;;5057407;28;20354;-71
2021/12/11 02:53:14;;;;;;;23.30;9.95;;;0.80;99.90;;;;;;5075164;28;20058;-71
2021/12/11 02:56:07;;;;;;;25.58;10.13;;;0.80;99.90;;;;;;5074716;28;20111;-70
2021/12/11 02:58:39;;;;;;;27.13;11.02;;;0.90;99.90;;;;;;5057336;28;20056;-71
2021/12/11 03:01:31;;;;;;;30.95;12.18;;;0.90;99.90;;;;;;5075256;28;20059;-71
2021/12/11 03:04:18;;;;;;;31.85;11.25;;;0.90;99.90;;;;;;5057312;28;20028;-71
2021/12/11 03:06:47;;;;;;;30.23;10.57;;;0.90;99.90;;;;;;5075001;28;20024;-71
2021/12/11 03:09:14;;;;;;;;;;;0.90;99.90;;;;;;5057449;28;20028;-71
2021/12/11 03:11:40;;;;;;;28.70;9.95;;;0.90;99.90;;;;;;5075155;28;20368;-71
2021/12/11 03:14:12;;;;;;;27.05;10.80;;;0.90;99.90;;;;;;5056789;28;20031;-71
2021/12/11 03:16:39;;;;;;;27.42;10.80;;;0.90;99.90;;;;;;5074553;28;20524;-71
2021/12/11 03:19:26;;;;;;;24.77;10.63;;;0.90;99.90;;;;;;5074450;28;20138;-71
2021/12/11 03:21:53;;;;;;;29.25;11.18;;;0.90;99.90;;;;;;5056696;28;20394;-71
2021/12/11 03:24:19;;;;;;;25.15;10.27;;;0.90;99.90;;;;;;5056688;28;20407;-71
2021/12/11 03:26:47;;;;;;;26.55;10.95;;;1.00;99.90;;;;;;5074740;28;20029;-71
2021/12/11 03:29:13;;;;;;;28.55;11.13;;;1.00;99.90;;;;;;5074567;28;20460;-71
2021/12/11 03:31:40;;;;;;;30.83;11.18;;;1.00;99.90;;;;;;5034691;28;1152102;-70
2021/12/11 03:34:14;;;;;;;31.27;11.20;;;1.00;99.90;;;;;;5057589;28;20127;-71
2021/12/11 03:36:40;;;;;;;29.13;11.07;;;1.00;99.90;;;;;;5075194;28;20392;-71
2021/12/11 03:39:17;;;;;;;29.67;10.93;;;0.90;99.90;;;;;;5075383;28;20484;-71
2021/12/11 03:41:47;;;;;;;27.65;10.38;;;1.00;99.90;;;;;;5075383;28;20074;-71
2021/12/11 03:44:14;;;;;;;30.90;12.85;;;0.90;99.90;;;;;;5075255;28;20025;-71
2021/12/11 03:46:41;;;;;;;29.40;11.20;;;1.00;99.90;;;;;;5075234;28;20029;-71
2021/12/11 03:49:11;;;;;;;33.50;12.13;;;0.90;99.90;;;;;;5075174;28;20044;-71
2021/12/11 03:51:40;;;;;;;27.23;10.25;;;0.90;99.90;;;;;;5075152;28;20032;-71
2021/12/11 03:54:09;;;;;;;33.22;10.82;;;0.90;99.90;;;;;;5057045;28;20166;-71
2021/12/11 03:56:37;;;;;;;26.40;10.27;;;0.90;99.90;;;;;;5075175;28;20032;-71
2021/12/11 03:59:09;;;;;;;31.65;10.82;;;0.90;99.90;;;;;;5075054;28;20115;-71
2021/12/11 04:01:40;;;;;;;32.17;11.27;;;0.90;99.90;;;;;;5056611;28;20440;-71
2021/12/11 04:04:16;;;;;;;33.10;11.82;;;1.00;99.90;;;;;;5075026;28;20025;-71
2021/12/11 04:06:43;;;;;;;37.67;12.23;;;0.90;99.90;;;;;;5056913;28;20487;-71
2021/12/11 04:09:11;;;;;;;29.80;11.55;;;1.00;99.90;;;;;;5056823;28;20048;-71
2021/12/11 04:11:37;;;;;;;36.65;12.50;;;0.90;99.90;;;;;;5056467;28;20038;-71
2021/12/11 04:14:13;;;;;;;33.92;11.73;;;1.00;99.90;;;;;;5056740;28;20029;-72
2021/12/11 04:16:43;;;;;;;32.47;11.38;;;1.00;99.90;;;;;;5074481;28;20415;-71
2021/12/11 04:19:10;;;;;;;30.60;11.05;;;0.90;99.90;;;;;;5056658;28;20034;-71
2021/12/11 04:21:37;;;;;;;30.85;12.07;;;0.90;99.90;;;;;;5074293;28;20399;-70
2021/12/11 04:24:05;;;;;;;34.88;11.43;;;0.80;99.90;;;;;;5074563;28;20032;-71
2021/12/11 04:26:31;;;;;;;32.72;11.15;;;0.80;99.90;;;;;;5056462;28;20081;-71
2021/12/11 04:28:58;;;;;;;37.08;11.85;;;0.80;99.90;;;;;;5074421;28;20032;-70
2021/12/11 04:31:27;;;;;;;33.10;11.95;;;0.80;99.90;;;;;;5077619;28;20521;-71
2021/12/11 04:33:58;;;;;;;36.03;11.90;;;0.80;99.90;;;;;;5093324;28;20032;-71
2021/12/11 04:36:30;;;;;;;38.00;11.88;;;0.80;99.90;;;;;;5093432;28;20028;-71
2021/12/11 04:38:56;;;;;;;34.78;12.02;;;0.80;99.90;;;;;;5094701;28;20024;-70
2021/12/11 04:41:31;;;;;;;35.38;12.85;;;0.80;99.90;;;;;;5094424;28;20115;-71
2021/12/11 04:44:04;;;;;;;34.63;11.88;;;0.80;99.90;;;;;;5094516;28;20024;-70
2021/12/11 04:46:30;;;;;;;33.75;11.82;;;0.80;99.90;;;;;;5094594;28;20024;-72
2021/12/11 04:49:09;;;;;;;34.85;12.73;;;0.80;99.90;;;;;;5094423;28;20085;-71
2021/12/11 04:51:56;;;;;;;32.63;11.05;;;0.90;99.90;;;;;;5094400;28;20030;-71
2021/12/11 05:00:08;;;;;;;34.53;11.75;;;0.90;99.90;;;;;;5094215;28;20032;-71
2021/12/11 05:11:05;;;;;;;33.17;11.77;;;0.90;99.90;;;;;;5077646;28;20051;-71
2021/12/11 05:13:32;;;;;;;38.10;12.05;;;0.90;99.90;;;;;;5092721;28;20464;-71
2021/12/11 05:16:03;;;;;;;34.20;12.57;;;0.90;99.90;;;;;;5094012;28;20031;-71
2021/12/11 05:18:32;;;;;;;37.22;12.80;;;0.90;99.90;;;;;;5093726;28;20161;-71
2021/12/11 05:21:03;;;;;;;38.08;12.32;;;0.90;99.90;;;;;;5093932;28;20055;-71
2021/12/11 05:23:29;;;;;;;31.67;10.70;;;0.90;99.90;;;;;;5092898;28;20054;-71
2021/12/11 05:25:56;;;;;;;31.92;11.48;;;0.80;99.90;;;;;;5094195;28;20024;-71
2021/12/11 05:28:22;;;;;;;40.15;12.45;;;0.80;99.90;;;;;;5093893;28;20368;-71
2021/12/11 05:30:50;;;;;;;32.78;13.00;;;0.80;99.90;;;;;;5086381;28;20079;-71
2021/12/11 05:33:18;;;;;;;33.03;11.77;;;0.90;99.90;;;;;;5073649;28;20024;-71
2021/12/11 05:35:44;;;;;;;37.55;12.27;;;0.90;99.90;;;;;;5055589;28;20623;-71
2021/12/11 05:38:13;;;;;;;38.45;13.43;;;0.90;99.90;;;;;;5073625;28;20100;-71
2021/12/11 05:40:44;;;;;;;39.17;14.30;;;0.90;99.90;;;;;;5073473;28;20361;-71
2021/12/11 05:43:11;;;;;;;37.50;12.95;;;0.90;99.90;;;;;;5073596;28;20139;-71
2021/12/11 05:45:38;;;;;;;36.05;12.50;;;0.90;99.90;;;;;;5073484;28;20070;-71
2021/12/11 05:48:04;;;;;;;38.10;12.32;;;0.90;99.90;;;;;;5055500;28;20387;-71
2021/12/11 05:50:46;;;;;;;46.13;13.38;;;0.90;99.90;;;;;;5073517;28;20400;-71
2021/12/11 05:53:13;;;;;;;42.22;14.20;;;1.00;99.90;;;;;;5073446;28;20383;-71
2021/12/11 05:55:41;;;;;;;37.13;12.93;;;1.00;99.90;;;;;;5073391;28;20461;-71
2021/12/11 05:58:11;;;;;;;36.00;13.63;;;1.00;99.90;;;;;;5073740;28;20107;-71
2021/12/11 06:00:47;;;;;;;35.55;10.88;;;0.90;99.90;;;;;;5055416;28;20472;-71
2021/12/11 06:03:13;;;;;;;36.20;11.80;;;0.90;99.90;;;;;;5073126;28;20380;-71
2021/12/11 06:05:40;;;;;;;40.08;13.57;;;0.90;99.90;;;;;;5055348;28;20054;-71
2021/12/11 06:08:08;;;;;;;37.13;12.38;;;0.90;99.90;;;;;;5073028;28;20106;-71
2021/12/11 06:10:35;;;;;;;40.97;12.90;;;0.90;99.90;;;;;;5073547;28;20081;-71
2021/12/11 06:13:02;;;;;;;41.38;12.77;;;0.90;99.90;;;;;;5073553;28;20257;-71
2021/12/11 06:15:29;;;;;;;40.58;12.68;;;1.00;99.90;;;;;;5073256;28;20435;-71
2021/12/11 06:17:55;;;;;;;34.58;12.73;;;1.00;99.90;;;;;;5072875;28;20035;-70
2021/12/11 06:20:26;;;;;;;41.05;12.95;;;1.00;99.90;;;;;;5073165;28;20460;-71
2021/12/11 06:22:52;;;;;;;38.05;12.65;;;1.00;99.90;;;;;;5073207;28;20029;-71
2021/12/11 06:25:26;;;;;;;39.70;13.35;;;1.00;99.90;;;;;;5076319;28;20029;-71
2021/12/11 06:27:52;;;;;;;38.13;12.55;;;1.00;99.90;;;;;;5077066;28;20021;-71
2021/12/11 06:30:18;;;;;;;42.53;12.88;;;1.00;99.90;;;;;;5076582;28;20060;-71
2021/12/11 06:32:46;;;;;;;38.78;12.73;;;1.00;99.90;;;;;;5076751;28;20039;-71
2021/12/11 06:35:18;;;;;;;36.42;12.57;;;1.00;99.90;;;;;;5076598;28;20031;-71
2021/12/11 06:37:44;;;;;;;34.80;11.25;;;1.00;99.90;;;;;;5076622;28;20032;-71
2021/12/11 06:40:11;;;;;;;41.20;12.55;;;1.00;99.90;;;;;;5058499;28;20032;-71
2021/12/11 06:42:37;;;;;;;37.60;13.73;;;1.10;99.90;;;;;;5058403;28;20404;-71
2021/12/11 06:45:04;;;;;;;46.25;13.07;;;1.00;99.90;;;;;;5076442;28;20020;-71
2021/12/11 06:47:49;;;;;;;42.92;13.13;;;1.00;99.90;;;;;;5058436;28;20090;-71
2021/12/11 06:50:15;;;;;;;46.78;12.90;;;1.10;99.90;;;;;;5076564;28;20103;-71
2021/12/11 06:52:41;;;;;;;41.65;13.80;;;1.10;99.90;;;;;;5076278;28;20025;-71
2021/12/11 06:55:08;;;;;;;43.17;14.02;;;1.10;99.90;;;;;;5058342;28;20028;-71
2021/12/11 06:57:34;;;;;;;40.00;12.48;;;1.10;99.90;;;;;;5076165;28;20099;-71
2021/12/11 07:00:00;;;;;;;41.58;13.18;;;1.10;99.90;;;;;;5076053;28;20432;-71
2021/12/11 07:02:26;;;;;;;43.25;13.82;;;1.10;99.90;;;;;;5058216;28;20024;-72
2021/12/11 07:04:55;;;;;;;38.45;13.23;;;1.10;99.90;;;;;;5058661;28;20123;-72
2021/12/11 07:07:24;;;;;;;;;;;1.10;99.90;;;;;;5058467;28;20025;-71
2021/12/11 07:09:51;;;;;;;44.97;12.13;;;1.20;99.90;;;;;;5076065;28;20368;-72
2021/12/11 07:12:18;;;;;;;43.47;12.57;;;1.20;99.90;;;;;;5075944;28;20369;-76
2021/12/11 07:14:43;;;;;;;45.92;14.63;;;1.20;99.90;;;;;;5058009;28;20027;-68
2021/12/11 07:17:09;;;;;;;32.60;12.52;;;1.20;99.90;;;;;;5057844;28;20029;-68
2021/12/11 07:19:35;;;;;;;44.05;13.07;;;1.20;99.90;;;;;;5075634;28;20028;-68
2021/12/11 07:22:01;;;;;;;43.38;12.68;;;1.20;99.90;;;;;;5075772;28;20035;-69
2021/12/11 07:24:36;;;;;;;38.30;13.38;;;1.30;99.90;;;;;;5057630;28;20028;-68
2021/12/11 07:27:05;;;;;;;43.28;12.48;;;1.20;99.90;;;;;;5075901;28;20020;-68
2021/12/11 07:29:32;;;;;;;38.25;13.82;;;1.30;99.90;;;;;;5075553;28;20025;-68
2021/12/11 07:31:58;;;;;;;39.47;13.73;;;1.30;99.90;;;;;;5075386;28;20049;-68
2021/12/11 07:34:24;;;;;;;38.70;13.57;;;1.30;99.90;;;;;;5075621;28;20059;-67
2021/12/11 07:36:51;;;;;;;34.08;12.50;;;1.30;99.90;;;;;;5074434;28;20033;-68
2021/12/11 07:39:19;;;;;;;40.00;13.25;;;1.40;99.90;;;;;;5075123;28;20455;-68
2021/12/11 07:41:46;;;;;;;35.30;11.90;;;1.40;99.90;;;;;;5075397;28;20426;-68
2021/12/11 07:44:12;;;;;;;27.45;11.23;;;1.40;99.90;;;;;;5075472;28;20025;-69
2021/12/11 07:46:38;;;;;;;31.77;11.85;;;1.40;99.90;;;;;;5074932;28;20464;-68
2021/12/11 07:49:05;;;;;;;40.72;13.93;;;1.40;99.90;;;;;;5057279;28;20028;-68
2021/12/11 07:51:33;;;;;;;32.00;12.50;;;1.40;99.90;;;;;;5057193;28;20032;-68
2021/12/11 07:53:59;;;;;;;26.88;10.95;;;1.50;99.90;;;;;;5057383;28;20032;-67
2021/12/11 07:56:26;;;;;;;28.60;11.60;;;1.50;99.90;;;;;;5075048;28;20024;-68
2021/12/11 07:58:57;;;;;;;32.40;12.35;;;1.50;99.90;;;;;;5075036;28;20020;-68
2021/12/11 08:01:24;;;;;;;31.13;12.70;;;1.50;99.90;;;;;;5075053;28;20115;-67
2021/12/11 08:03:49;;;;;;;28.90;12.02;;;1.50;99.90;;;;;;5057315;28;20135;-67
2021/12/11 08:06:15;;;;;;;26.85;11.48;;;1.50;99.90;;;;;;5075006;28;20472;-68
2021/12/11 08:08:43;;;;;;;27.58;11.93;;;1.50;99.90;;;;;;5074838;28;20104;-68
2021/12/11 08:11:13;;;;;;;26.15;10.25;;;1.50;99.90;;;;;;5074807;28;20028;-67
2021/12/11 08:13:41;;;;;;;24.92;10.32;;;1.60;99.90;;;;;;5075377;28;20108;-66
2021/12/11 08:16:07;;;;;;;25.95;10.23;;;1.60;99.90;;;;;;5074687;28;20039;-71
2021/12/11 08:18:33;;;;;;;28.00;10.82;;;1.60;99.90;;;;;;5074365;28;20032;-65
2021/12/11 08:20:59;;;;;;;22.42;10.35;;;1.60;99.90;;;;;;5074480;28;20075;-66
2021/12/11 08:23:25;;;;;;;24.83;11.57;;;1.60;99.90;;;;;;5074787;28;20060;-66
2021/12/11 08:25:52;;;;;;;20.83;9.30;;;1.60;99.90;;;;;;5039700;28;20468;-67
2021/12/11 08:28:22;;;;;;;27.45;11.52;;;1.60;99.90;;;;;;5074630;28;20024;-67
2021/12/11 08:30:50;;;;;;;25.90;11.50;;;1.60;99.90;;;;;;5067650;28;20365;-65
2021/12/11 08:33:16;;;;;;;30.33;10.93;;;1.60;99.90;;;;;;5094642;28;20016;-67
2021/12/11 08:35:43;;;;;;;24.05;10.38;;;1.50;99.90;;;;;;5094407;28;20028;-68
2021/12/11 08:38:09;;;;;;;22.38;11.02;;;1.50;99.90;;;;;;5093407;28;20024;-74
2021/12/11 08:40:38;;;;;;;21.38;10.05;;;1.50;99.90;;;;;;5094398;28;20096;-69
2021/12/11 08:43:07;;;;;;;;;;;1.60;99.90;;;;;;5094839;28;20035;-73
2021/12/11 08:45:45;;;;;;;25.77;11.07;;;1.50;99.90;;;;;;5094444;28;19911;-63
2021/12/11 08:48:19;;;;;;;23.30;10.35;;;1.50;99.90;;;;;;5094177;28;20028;-71
2021/12/11 08:50:48;;;;;;;24.55;11.02;;;1.50;99.90;;;;;;5094397;28;20475;-68
2021/12/11 08:53:15;;;;;;;27.15;10.82;;;1.50;99.90;;;;;;5093074;28;20020;-68
2021/12/11 08:55:59;;;;;;;21.00;9.50;;;1.50;99.90;;;;;;5094323;28;20031;-72
2021/12/11 08:58:27;;;;;;;24.27;10.50;;;1.50;99.90;;;;;;5093070;28;20024;-76
2021/12/11 09:01:03;;;;;;;24.98;10.65;;;1.50;99.90;;;;;;5093854;28;20391;-75
2021/12/11 09:03:50;;;;;;;21.63;10.35;;;1.50;99.90;;;;;;5094010;28;20024;-71
2021/12/11 09:06:32;;;;;;;26.15;10.27;;;1.50;99.90;;;;;;5092797;28;20020;-71
2021/12/11 09:09:04;;;;;;;25.40;11.15;;;1.50;99.90;;;;;;5094308;28;20157;-70
2021/12/11 09:11:35;;;;;;;22.85;10.95;;;1.50;99.90;;;;;;5093950;28;20036;-70
2021/12/11 09:14:24;;;;;;;24.85;11.85;;;1.60;99.90;;;;;;5092800;28;20020;-70
2021/12/11 09:16:57;;;;;;;23.13;11.13;;;1.60;99.90;;;;;;5092998;28;20035;-70
2021/12/11 09:19:34;;;;;;;24.38;10.73;;;1.60;99.90;;;;;;5094131;28;20050;-71
2021/12/11 09:22:28;;;;;;;23.88;11.35;;;1.70;99.90;;;;;;5092778;28;20385;-71
2021/12/11 09:25:06;;;;;;;23.13;11.70;;;1.70;99.90;;;;;;5092279;28;20031;-70
2021/12/11 09:27:42;;;;;;;25.23;12.20;;;1.70;99.90;;;;;;5092552;28;20027;-71
2021/12/11 09:30:18;;;;;;;28.75;11.52;;;1.80;99.90;;;;;;5090565;28;20533;-71
2021/12/11 09:32:49;;;;;;;24.73;11.93;;;1.80;99.90;;;;;;5055506;28;20094;-71
2021/12/11 09:35:23;;;;;;;23.95;10.95;;;1.80;99.90;;;;;;5073576;28;20025;-71
2021/12/11 09:37:52;;;;;;;23.88;11.07;;;1.80;99.90;;;;;;5055631;28;20025;-71
2021/12/11 09:40:44;;;;;;;23.83;11.32;;;1.90;99.90;;;;;;5073658;28;20415;-71
2021/12/11 09:43:41;;;;;;;24.58;10.80;;;1.90;99.90;;;;;;5051139;28;20032;-71
2021/12/11 09:46:10;;;;;;;21.67;11.50;;;1.90;99.90;;;;;;5073462;28;20110;-72
2021/12/11 09:48:39;;;;;;;28.13;12.70;;;2.00;99.90;;;;;;5055392;28;20033;-71
2021/12/11 09:51:10;;;;;;;26.88;11.13;;;2.00;99.90;;;;;;5073652;28;20029;-73
2021/12/11 09:53:40;;;;;;;22.70;10.68;;;2.00;99.90;;;;;;5056105;28;20021;-70
2021/12/11 09:56:15;;;;;;;23.77;10.82;;;2.00;99.90;;;;;;5055427;28;20479;-69
2021/12/11 09:58:42;;;;;;;32.70;12.60;;;2.10;99.90;;;;;;5074144;28;20056;-72
2021/12/11 10:01:18;;;;;;;34.42;12.43;;;2.20;99.90;;;;;;5077207;28;20075;-72
2021/12/11 10:03:53;;;;;;;28.67;12.18;;;2.20;99.90;;;;;;5059399;28;20028;-72
2021/12/11 10:06:38;;;;;;;24.63;11.20;;;2.30;99.90;;;;;;5077319;28;20078;-73
2021/12/11 10:09:26;;;;;;;23.65;11.30;;;2.40;99.90;;;;;;5077230;28;20056;-71
2021/12/11 10:12:06;;;;;;;24.50;11.05;;;2.40;99.90;;;;;;5058316;28;20127;-72
2021/12/11 10:14:42;;;;;;;27.58;12.10;;;2.50;99.90;;;;;;5077128;28;20027;-73
2021/12/11 10:17:19;;;;;;;27.88;12.75;;;2.60;99.90;;;;;;5059368;28;20032;-72
2021/12/11 10:19:46;;;;;;;22.70;11.15;;;2.70;99.90;;;;;;5076644;28;20090;-72
2021/12/11 10:22:26;;;;;;;25.13;11.32;;;2.70;99.90;;;;;;5076953;28;20020;-71
2021/12/11 10:24:53;;;;;;;23.40;11.73;;;2.80;99.90;;;;;;5059044;28;20025;-71
2021/12/11 10:27:23;;;;;;;27.00;12.02;;;2.90;99.90;;;;;;5058844;28;20024;-72
2021/12/11 10:29:51;;;;;;;27.00;13.15;;;2.90;99.90;;;;;;5076772;28;20037;-71
2021/12/11 10:32:21;;;;;;;28.52;12.48;;;2.90;99.90;;;;;;5094422;28;20048;-71
2021/12/11 10:34:51;;;;;;;24.35;11.77;;;2.80;99.90;;;;;;5095535;28;20020;-71
2021/12/11 10:37:21;;;;;;;29.23;11.63;;;2.90;99.90;;;;;;5096960;28;20046;-72
2021/12/11 10:39:50;;;;;;;26.15;12.68;;;2.80;99.90;;;;;;5095905;28;20072;-71
2021/12/11 10:42:16;;;;;;;;;;;2.90;99.90;;;;;;5095846;28;20114;-71
2021/12/11 10:44:45;;;;;;;25.90;11.25;;;3.00;99.90;;;;;;5096738;28;20000;-71
2021/12/11 10:47:18;;;;;;;22.92;11.13;;;3.00;99.90;;;;;;5096507;28;20035;-71
2021/12/11 10:49:45;;;;;;;23.00;10.75;;;3.10;99.90;;;;;;5096723;28;20016;-70
2021/12/11 10:52:24;;;;;;;24.25;10.85;;;3.10;99.90;;;;;;5095885;28;20028;-71
2021/12/11 10:54:53;;;;;;;24.52;10.95;;;3.20;99.90;;;;;;5094977;28;20063;-71
2021/12/11 10:57:20;;;;;;;23.77;12.63;;;3.30;99.90;;;;;;5096523;28;20024;-71
2021/12/11 10:59:49;;;;;;;31.38;11.93;;;3.30;99.90;;;;;;5096438;28;20028;-71
2021/12/11 11:02:20;;;;;;;24.15;10.93;;;3.40;99.90;;;;;;5096413;28;20086;-71
2021/12/11 11:05:04;;;;;;;25.40;11.05;;;3.40;99.90;;;;;;5095686;28;20024;-71
2021/12/11 11:07:30;;;;;;;23.50;10.38;;;3.40;99.90;;;;;;5096600;28;20110;-71
2021/12/11 11:10:03;;;;;;;30.17;11.82;;;3.30;99.90;;;;;;5095964;28;20450;-71
2021/12/11 11:12:29;;;;;;;23.20;11.20;;;3.30;99.90;;;;;;5096318;28;20494;-71
2021/12/11 11:14:56;;;;;;;26.05;12.40;;;3.30;99.90;;;;;;5095154;28;20024;-71
2021/12/11 11:17:31;;;;;;;25.42;10.80;;;3.30;99.90;;;;;;5095946;28;20021;-71
2021/12/11 11:19:58;;;;;;;26.27;13.00;;;3.40;99.90;;;;;;5096112;28;20040;-71
2021/12/11 11:22:30;;;;;;;24.33;11.73;;;3.40;99.90;;;;;;5094775;28;20034;-71
2021/12/11 11:25:20;;;;;;;24.63;11.82;;;3.40;99.90;;;;;;5096117;28;20035;-71
2021/12/11 11:27:48;;;;;;;25.88;12.10;;;3.40;99.90;;;;;;5096296;28;20106;-71
2021/12/11 11:30:20;;;;;;;24.92;11.00;;;3.50;99.90;;;;;;5092971;28;20032;-71
2021/12/11 11:32:46;;;;;;;23.45;11.95;;;3.50;99.90;;;;;;5075657;28;20381;-71
2021/12/11 11:35:18;;;;;;;29.63;13.10;;;3.70;99.90;;;;;;5075483;28;20035;-71
2021/12/11 11:37:46;;;;;;;31.27;12.52;;;3.80;99.90;;;;;;5075802;28;20034;-71
2021/12/11 11:40:15;;;;;;;29.70;12.93;;;3.90;99.90;;;;;;5074909;28;20422;-71
2021/12/11 11:42:42;;;;;;;32.63;14.63;;;4.00;99.90;;;;;;5075245;28;20082;-71
2021/12/11 11:45:11;;;;;;;29.92;14.02;;;4.10;99.90;;;;;;5075285;28;20032;-71
2021/12/11 11:47:37;;;;;;;30.02;14.48;;;4.20;99.90;;;;;;5057255;28;20484;-71
2021/12/11 11:50:07;;;;;;;30.75;13.48;;;4.20;99.90;;;;;;5075173;28;20094;-71
2021/12/11 11:52:33;;;;;;;33.45;13.73;;;4.30;99.90;;;;;;5075118;28;20414;-71
2021/12/11 11:55:04;;;;;;;28.10;12.82;;;4.30;99.90;;;;;;5075158;28;20024;-71
2021/12/11 11:57:38;;;;;;;30.85;12.82;;;4.30;99.90;;;;;;5074899;28;20039;-71
2021/12/11 12:00:13;;;;;;;30.27;13.70;;;4.30;99.90;;;;;;5074853;28;20039;-71
2021/12/11 12:02:40;;;;;;;23.73;11.80;;;4.20;99.90;;;;;;5057068;28;20115;-71
2021/12/11 12:05:07;;;;;;;31.10;13.43;;;4.10;99.90;;;;;;5056964;28;20468;-71
2021/12/11 12:07:33;;;;;;;25.92;12.85;;;4.10;99.90;;;;;;5057048;28;20471;-72
2021/12/11 12:10:12;;;;;;;32.47;14.43;;;4.10;99.90;;;;;;5056543;28;20037;-71
2021/12/11 12:12:38;;;;;;;26.73;11.35;;;4.20;99.90;;;;;;5075077;28;20107;-71
2021/12/11 12:15:10;;;;;;;25.92;12.65;;;4.10;99.90;;;;;;5074736;28;20032;-71
2021/12/11 12:17:36;;;;;;;23.52;11.93;;;4.10;99.90;;;;;;5074866;28;20051;-72
2021/12/11 12:20:08;;;;;;;25.33;11.27;;;4.20;99.90;;;;;;5056546;28;20068;-72
2021/12/11 12:22:34;;;;;;;23.67;11.30;;;4.10;99.90;;;;;;5056045;28;20086;-71
2021/12/11 12:25:02;;;;;;;16.95;8.88;;;4.10;99.90;;;;;;5074232;28;20032;-71
2021/12/11 12:27:32;;;;;;;17.75;8.82;;;4.10;99.90;;;;;;5074760;28;20035;-71
2021/12/11 12:29:59;;;;;;;14.68;8.23;;;4.10;99.90;;;;;;5056448;28;20067;-72
2021/12/11 12:32:30;;;;;;;20.55;8.63;;;4.00;99.90;;;;;;5056931;28;20441;-72
2021/12/11 12:35:04;;;;;;;13.57;7.60;;;4.00;99.90;;;;;;5074351;28;20021;-71
2021/12/11 12:37:30;;;;;;;14.98;8.40;;;3.90;99.90;;;;;;5056959;28;20032;-70
2021/12/11 12:39:58;;;;;;;20.42;10.20;;;3.80;99.90;;;;;;5056215;28;20486;-70
2021/12/11 12:42:35;;;;;;;16.60;9.52;;;3.80;99.90;;;;;;5074207;28;20028;-70
2021/12/11 12:45:06;;;;;;;16.33;8.82;;;3.80;99.90;;;;;;5074527;28;20029;-70
2021/12/11 12:47:36;;;;;;;18.23;9.35;;;3.80;99.90;;;;;;5073828;28;20527;-71
2021/12/11 12:50:10;;;;;;;16.52;8.20;;;3.80;99.90;;;;;;5073983;28;20044;-69
2021/12/11 12:52:39;;;;;;;20.15;9.15;;;3.80;99.90;;;;;;5056631;28;20052;-73
2021/12/11 12:55:23;;;;;;;18.52;9.13;;;3.90;99.90;;;;;;5074138;28;20029;-71
2021/12/11 12:57:52;;;;;;;22.52;10.25;;;4.00;99.90;;;;;;5074341;28;20025;-71
2021/12/11 13:00:23;;;;;;;;;;;3.90;99.90;;;;;;5074622;28;20036;-71
2021/12/11 13:02:56;;;;;;;19.30;9.32;;;3.90;99.90;;;;;;5073908;28;19908;-72
2021/12/11 13:05:27;;;;;;;16.55;9.02;;;3.80;99.90;;;;;;5055698;28;20106;-70
2021/12/11 13:08:01;;;;;;;20.70;9.63;;;3.80;99.90;;;;;;5073845;28;20480;-71
2021/12/11 13:10:39;;;;;;;23.98;10.23;;;3.70;99.90;;;;;;5074008;28;20050;-70
2021/12/11 13:13:08;;;;;;;18.35;8.45;;;3.70;99.90;;;;;;5056226;28;20031;-70
2021/12/11 13:15:40;;;;;;;20.08;8.98;;;3.60;99.90;;;;;;5055842;28;20061;-70